Time;durP1;ratioP1;P1;durP2;ratioP2;P2;SDS_P1;SDS_P2;PMS_P1;PMS_P2;Temp;Humidity;BMP_temperature;BMP_pressure;BME280_temperature;BME280_humidity;BME280_pressure;Samples;Min_cycle;Max_cycle;Signal;HPM_P1;HPM_P2
2021/07/01 00:00:13;;;;;;;8.45;7.55;;;;;;;25.36;56.48;100716.25;5034492;28;20029;-79
2021/07/01 00:02:39;;;;;;;8.40;7.53;;;;;;;25.30;56.62;100710.59;5034309;28;20025;-79
2021/07/01 00:05:06;;;;;;;8.43;6.82;;;;;;;25.32;56.43;100719.31;5034295;28;20251;-79
2021/07/01 00:07:32;;;;;;;8.07;7.28;;;;;;;25.39;56.04;100715.84;5034128;28;20037;-79
2021/07/01 00:09:57;;;;;;;8.25;7.15;;;;;;;25.40;55.72;100721.03;5034070;28;20025;-79
2021/07/01 00:12:22;;;;;;;9.20;7.57;;;;;;;25.39;56.12;100723.91;5033993;28;20120;-79
2021/07/01 00:14:48;;;;;;;9.98;7.05;;;;;;;25.37;55.80;100715.19;5034017;28;20052;-79
2021/07/01 00:17:13;;;;;;;7.82;6.90;;;;;;;25.28;56.17;100711.84;5034014;28;20384;-79
2021/07/01 00:19:39;;;;;;;8.70;7.78;;;;;;;25.38;55.66;100719.56;5034145;28;20029;-79
2021/07/01 00:22:04;;;;;;;9.73;6.95;;;;;;;25.38;55.88;100722.25;5033844;28;20032;-79
2021/07/01 00:24:30;;;;;;;11.45;7.85;;;;;;;25.33;55.48;100720.13;5033871;28;20033;-79
2021/07/01 00:26:55;;;;;;;9.02;7.43;;;;;;;25.30;55.64;100718.66;5033684;28;20084;-79
2021/07/01 00:29:21;;;;;;;8.65;7.68;;;;;;;25.25;55.61;100709.53;5034026;28;20030;-79
2021/07/01 00:31:46;;;;;;;9.27;6.78;;;;;;;25.24;55.57;100711.38;5033821;28;20460;-79
2021/07/01 00:34:11;;;;;;;10.50;7.60;;;;;;;25.23;55.61;100714.25;5032069;28;20021;-79
2021/07/01 00:36:37;;;;;;;9.55;6.75;;;;;;;25.24;55.62;100713.25;5033380;28;20029;-79
2021/07/01 00:39:04;;;;;;;9.40;7.57;;;;;;;25.24;55.38;100718.63;5033439;28;20100;-79
2021/07/01 00:41:29;;;;;;;9.32;6.90;;;;;;;25.21;55.53;100727.03;5033443;28;20156;-79
2021/07/01 00:43:55;;;;;;;8.00;7.20;;;;;;;25.22;55.56;100718.81;5033556;28;20112;-79
2021/07/01 00:46:20;;;;;;;9.90;7.03;;;;;;;25.25;55.40;100722.94;5033366;28;20038;-79
2021/07/01 00:48:46;;;;;;;7.43;6.72;;;;;;;25.22;55.36;100717.97;5033499;28;20108;-79
2021/07/01 00:51:11;;;;;;;7.55;6.75;;;;;;;25.23;55.66;100725.00;5033255;28;20022;-79
2021/07/01 00:53:37;;;;;;;8.05;6.97;;;;;;;25.21;55.49;100717.09;5033359;28;20033;-79
2021/07/01 00:56:05;;;;;;;8.02;7.20;;;;;;;25.17;55.74;100717.69;5033241;28;20037;-79
2021/07/01 00:58:31;;;;;;;6.88;6.18;;;;;;;25.15;55.75;100723.25;5033180;28;20218;-79
2021/07/01 01:01:04;;;;;;;7.97;7.18;;;;;;;25.11;55.80;100717.41;5033695;28;20088;-79
2021/07/01 01:03:39;;;;;;;7.78;6.97;;;;;;;25.10;55.65;100720.31;5033136;28;20021;-79
2021/07/01 01:06:06;;;;;;;6.70;6.05;;;;;;;25.00;56.03;100717.09;5033160;28;20022;-79
2021/07/01 01:08:31;;;;;;;8.10;6.72;;;;;;;25.08;55.75;100720.50;5033063;28;20021;-79
2021/07/01 01:10:58;;;;;;;7.18;6.47;;;;;;;25.08;55.83;100712.44;5033086;28;20523;-79
2021/07/01 01:13:26;;;;;;;10.38;6.75;;;;;;;25.08;55.59;100712.44;5033099;28;20033;-80
2021/07/01 01:15:52;;;;;;;8.02;6.72;;;;;;;25.09;55.53;100710.59;5033125;28;20025;-79
2021/07/01 01:18:18;;;;;;;7.78;6.97;;;;;;;25.07;55.38;100713.44;5032911;28;20392;-80
2021/07/01 01:20:44;;;;;;;9.48;6.55;;;;;;;25.10;55.08;100712.25;5032848;28;20021;-79
2021/07/01 01:23:09;;;;;;;7.53;6.60;;;;;;;25.13;55.24;100709.16;5031615;28;20490;-79
2021/07/01 01:25:35;;;;;;;9.52;7.15;;;;;;;25.11;55.39;100709.34;5032880;28;20022;-79
2021/07/01 01:28:00;;;;;;;8.57;6.65;;;;;;;25.11;55.36;100706.66;5032652;28;20527;-80
2021/07/01 01:30:26;;;;;;;7.70;6.90;;;;;;;25.10;54.85;100699.66;5032768;28;20021;-79
2021/07/01 01:32:51;;;;;;;7.03;6.32;;;;;;;25.07;55.35;100712.63;5032256;28;20079;-80
2021/07/01 01:35:16;;;;;;;8.15;6.85;;;;;;;25.05;55.47;100706.63;5032724;28;20044;-80
2021/07/01 01:37:41;;;;;;;7.35;6.65;;;;;;;25.05;55.39;100712.00;5032633;28;20033;-80
2021/07/01 01:40:07;;;;;;;7.43;6.60;;;;;;;25.03;55.27;100711.34;5032518;28;20098;-79
2021/07/01 01:42:33;;;;;;;7.95;6.53;;;;;;;25.01;55.29;100716.91;5032441;28;20033;-79
2021/07/01 01:44:58;;;;;;;9.60;6.70;;;;;;;24.97;55.53;100706.75;5032280;28;20040;-79
2021/07/01 01:47:23;;;;;;;7.25;6.43;;;;;;;24.96;55.19;100713.13;5031303;28;20503;-80
2021/07/01 01:49:50;;;;;;;7.15;6.28;;;;;;;24.96;55.19;100708.63;5032150;28;20034;-79
2021/07/01 01:52:16;;;;;;;7.78;6.97;;;;;;;25.00;55.36;100709.03;5032212;28;20104;-80
2021/07/01 01:54:42;;;;;;;10.60;7.30;;;;;;;25.06;54.81;100714.50;5032071;28;20139;-80
2021/07/01 01:57:08;;;;;;;8.73;6.78;;;;;;;25.05;55.11;100715.50;5032082;28;20029;-79
2021/07/01 01:59:33;;;;;;;7.70;6.90;;;;;;;25.00;55.32;100711.72;5031937;28;20030;-79
2021/07/01 02:01:59;;;;;;;7.40;6.65;;;;;;;24.98;54.86;100721.81;5030554;28;20028;-80
2021/07/01 02:04:25;;;;;;;7.75;7.05;;;;;;;24.91;55.39;100714.53;5032147;28;20391;-79
2021/07/01 02:06:50;;;;;;;7.65;5.95;;;;;;;24.92;55.20;100718.06;5032017;28;20108;-80
2021/07/01 02:09:16;;;;;;;6.97;6.28;;;;;;;24.91;55.12;100714.53;5031830;28;20045;-80
2021/07/01 02:11:41;;;;;;;7.82;6.72;;;;;;;24.91;55.51;100716.41;5031686;28;20498;-80
2021/07/01 02:14:06;;;;;;;7.22;6.30;;;;;;;24.88;55.49;100717.63;5031973;28;20080;-80
2021/07/01 02:16:32;;;;;;;7.78;6.85;;;;;;;24.90;55.52;100720.09;5031762;28;20547;-80
2021/07/01 02:18:57;;;;;;;7.05;6.30;;;;;;;24.90;55.39;100720.09;5030610;28;20072;-79
2021/07/01 02:21:23;;;;;;;8.30;6.40;;;;;;;24.90;55.42;100720.94;5031613;28;20035;-80
2021/07/01 02:23:49;;;;;;;9.20;6.13;;;;;;;24.90;55.27;100720.09;5031751;28;20052;-79
2021/07/01 02:26:15;;;;;;;7.47;6.65;;;;;;;24.86;55.63;100716.97;5031676;28;20426;-79
2021/07/01 02:28:41;;;;;;;9.55;6.55;;;;;;;24.86;55.55;100718.81;5031632;28;20021;-79
2021/07/01 02:31:07;;;;;;;6.80;6.10;;;;;;;24.88;55.42;100716.75;5031668;28;20037;-80
2021/07/01 02:33:32;;;;;;;8.15;6.32;;;;;;;24.88;55.16;100723.00;5031351;28;20025;-80
2021/07/01 02:35:57;;;;;;;7.60;6.32;;;;;;;24.88;55.18;100723.00;5031607;28;20072;-80
2021/07/01 02:38:23;;;;;;;6.90;6.20;;;;;;;24.87;55.40;100726.69;5031468;28;20044;-80
2021/07/01 02:40:48;;;;;;;8.02;6.85;;;;;;;24.63;56.18;100724.38;5031571;28;20075;-79
2021/07/01 02:43:14;;;;;;;9.40;6.43;;;;;;;24.83;55.89;100720.03;5031341;28;20095;-79
2021/07/01 02:45:39;;;;;;;8.65;6.78;;;;;;;24.86;55.54;100716.97;5031176;28;20088;-79
2021/07/01 02:48:06;;;;;;;7.97;6.00;;;;;;;24.88;55.63;100712.25;5029988;28;20033;-80
2021/07/01 02:50:31;;;;;;;6.25;5.65;;;;;;;24.86;55.69;100713.44;5031603;28;20032;-80
2021/07/01 02:52:57;;;;;;;7.03;6.25;;;;;;;24.86;55.48;100714.28;5031393;28;20384;-80
2021/07/01 02:55:22;;;;;;;7.45;6.20;;;;;;;24.86;55.68;100718.81;5031298;28;20506;-80
2021/07/01 02:57:48;;;;;;;7.13;6.43;;;;;;;24.84;55.41;100721.72;5030949;28;20039;-79
2021/07/01 03:00:14;;;;;;;8.30;6.22;;;;;;;24.85;55.58;100718.00;5031275;28;20083;-80
2021/07/01 03:02:40;;;;;;;7.20;6.25;;;;;;;24.82;55.53;100714.84;5031185;28;20025;-80
2021/07/01 03:05:06;;;;;;;6.57;5.68;;;;;;;24.82;55.51;100721.06;5031313;28;20025;-80
2021/07/01 03:07:32;;;;;;;6.80;5.97;;;;;;;24.82;55.64;100718.38;5031258;28;20089;-80
2021/07/01 03:09:57;;;;;;;7.60;6.85;;;;;;;24.82;55.62;100713.03;5031371;28;20029;-80
2021/07/01 03:12:23;;;;;;;7.07;6.38;;;;;;;24.77;55.41;100712.75;5031246;28;20508;-80
2021/07/01 03:14:49;;;;;;;8.57;6.60;;;;;;;24.79;55.55;100710.69;5031118;28;20025;-79
2021/07/01 03:17:15;;;;;;;7.07;6.38;;;;;;;24.80;55.78;100714.22;5031385;28;20037;-79
2021/07/01 03:19:41;;;;;;;8.55;6.60;;;;;;;24.80;55.60;100706.16;5031210;28;20033;-79
2021/07/01 03:22:06;;;;;;;6.97;6.22;;;;;;;24.86;55.12;100703.56;5031049;28;20036;-79
2021/07/01 03:24:31;;;;;;;8.43;6.18;;;;;;;24.82;55.19;100707.66;5031189;28;20021;-79
2021/07/01 03:26:59;;;;;;;7.03;6.30;;;;;;;24.81;55.61;100710.50;5030764;28;20117;-79
2021/07/01 03:29:25;;;;;;;6.65;6.05;;;;;;;24.81;55.26;100708.66;5031072;28;20108;-79
2021/07/01 03:31:51;;;;;;;6.80;6.10;;;;;;;24.81;55.26;100705.16;5030932;28;20419;-79
2021/07/01 03:34:16;;;;;;;6.90;6.20;;;;;;;24.81;55.13;100707.81;5031052;28;20017;-79
2021/07/01 03:36:41;;;;;;;7.72;6.05;;;;;;;24.78;55.31;100710.88;5030973;28;20037;-79
2021/07/01 03:39:07;;;;;;;8.52;6.88;;;;;;;24.79;55.45;100710.69;5031254;28;20032;-80
2021/07/01 03:41:32;;;;;;;8.18;6.40;;;;;;;24.81;55.27;100707.81;5031062;28;20030;-80
2021/07/01 03:43:58;;;;;;;8.13;7.28;;;;;;;24.78;55.29;100706.34;5031132;28;20029;-80
2021/07/01 03:46:24;;;;;;;7.82;6.55;;;;;;;24.78;55.30;100710.88;5030856;28;20025;-79
2021/07/01 03:48:49;;;;;;;7.13;6.43;;;;;;;24.78;55.03;100706.34;5031295;28;20075;-79
2021/07/01 03:51:14;;;;;;;8.48;6.50;;;;;;;24.76;55.06;100705.69;5031012;28;20446;-80
2021/07/01 03:53:40;;;;;;;7.32;5.97;;;;;;;24.74;55.51;100713.97;5030889;28;20022;-79
2021/07/01 03:56:05;;;;;;;7.00;6.30;;;;;;;24.67;55.15;100714.91;5031436;28;20104;-80
2021/07/01 03:58:31;;;;;;;7.50;6.78;;;;;;;24.61;55.29;100712.97;5030846;28;20025;-79
2021/07/01 04:00:56;;;;;;;7.53;5.75;;;;;;;24.67;55.44;100710.34;5030629;28;20032;-80
2021/07/01 04:03:21;;;;;;;8.95;6.10;;;;;;;24.71;55.38;100710.81;5029383;28;20494;-79
2021/07/01 04:05:47;;;;;;;6.93;6.22;;;;;;;24.69;55.17;100711.00;5030615;28;20112;-79
2021/07/01 04:08:12;;;;;;;6.47;5.85;;;;;;;24.67;55.13;100714.91;5030615;28;20079;-80
2021/07/01 04:10:37;;;;;;;8.90;6.10;;;;;;;24.68;55.21;100705.81;5031290;28;20472;-80
2021/07/01 04:13:03;;;;;;;7.30;6.55;;;;;;;24.69;54.91;100710.19;5034686;28;20040;-79
2021/07/01 04:15:28;;;;;;;7.00;5.95;;;;;;;24.65;55.04;100712.41;5032632;28;20091;-79
2021/07/01 04:17:53;;;;;;;7.55;6.40;;;;;;;24.65;55.04;100707.03;5034066;28;20025;-80
2021/07/01 04:20:19;;;;;;;7.93;6.05;;;;;;;24.65;55.12;100701.66;5034179;28;20032;-79
2021/07/01 04:22:44;;;;;;;7.93;6.13;;;;;;;24.61;55.38;100715.66;5033995;28;20499;-80
2021/07/01 04:25:10;;;;;;;6.95;6.18;;;;;;;24.65;54.87;100717.78;5034000;28;20030;-80
2021/07/01 04:27:36;;;;;;;7.47;6.35;;;;;;;24.62;55.33;100717.31;5033920;28;20484;-80
2021/07/01 04:30:02;;;;;;;9.05;6.90;;;;;;;24.62;55.31;100714.63;5033593;28;20021;-80
2021/07/01 04:32:28;;;;;;;7.50;6.80;;;;;;;24.55;55.37;100717.25;5033613;28;20889;-80
2021/07/01 04:34:53;;;;;;;8.95;7.13;;;;;;;24.62;54.98;100717.31;5033869;28;20026;-80
2021/07/01 04:37:19;;;;;;;7.45;6.75;;;;;;;24.61;54.74;100721.03;5033723;28;20059;-79
2021/07/01 04:39:44;;;;;;;6.65;6.05;;;;;;;24.61;54.91;100712.97;5034628;28;20369;-79
2021/07/01 04:42:09;;;;;;;8.50;7.32;;;;;;;24.49;54.90;100718.81;5033643;28;20100;-79
2021/07/01 04:44:35;;;;;;;7.55;6.32;;;;;;;24.48;55.08;100706.38;5033472;28;20026;-79
2021/07/01 04:47:00;;;;;;;7.30;6.13;;;;;;;24.58;54.60;100706.13;5033519;28;20030;-79
2021/07/01 04:49:26;;;;;;;7.00;6.30;;;;;;;24.60;54.74;100711.31;5033646;28;20030;-79
2021/07/01 04:51:51;;;;;;;7.07;6.30;;;;;;;24.48;55.13;100710.94;5033399;28;20075;-79
2021/07/01 04:54:16;;;;;;;7.82;6.78;;;;;;;24.47;54.81;100707.41;5033604;28;20411;-79
2021/07/01 04:56:45;;;;;;;6.88;6.10;;;;;;;24.46;54.85;100703.06;5045191;28;20155;-79
2021/07/01 04:59:14;;;;;;;7.80;6.63;;;;;;;24.46;54.71;100708.44;5033356;28;20029;-79
2021/07/01 05:01:41;;;;;;;6.68;6.00;;;;;;;24.47;54.89;100711.97;5042777;28;20017;-80
2021/07/01 05:04:07;;;;;;;7.78;6.38;;;;;;;24.48;54.85;100716.28;5053552;28;20021;-80
2021/07/01 05:06:34;;;;;;;7.50;6.70;;;;;;;24.57;54.36;100709.84;5052240;28;20071;-79
2021/07/01 05:08:59;;;;;;;6.43;5.82;;;;;;;24.60;54.29;100714.00;5053117;28;20057;-79
2021/07/01 05:11:24;;;;;;;7.90;6.55;;;;;;;24.60;54.17;100709.44;5051362;28;20125;-79
2021/07/01 05:13:50;;;;;;;7.30;6.55;;;;;;;24.62;54.62;100717.31;5053000;28;20475;-79
2021/07/01 05:16:15;;;;;;;7.82;6.57;;;;;;;24.64;54.42;100720.63;5049140;28;20108;-79
2021/07/01 05:18:40;;;;;;;7.38;6.60;;;;;;;24.67;54.18;100723.78;5033184;28;20132;-79
2021/07/01 05:21:06;;;;;;;10.18;7.80;;;;;;;24.65;54.10;100716.94;5033878;28;20033;-80
2021/07/01 05:23:31;;;;;;;12.60;6.97;;;;;;;24.68;54.72;100716.56;5034592;28;20111;-79
2021/07/01 05:25:56;;;;;;;24.48;8.40;;;;;;;24.72;55.15;100717.84;5036004;28;20058;-77
2021/07/01 05:28:22;;;;;;;28.48;8.70;;;;;;;24.74;55.25;100718.47;5052525;28;20489;-77
2021/07/01 05:30:47;;;;;;;14.38;10.25;;;;;;;24.66;54.76;100724.78;5052728;28;20514;-77
2021/07/01 05:33:13;;;;;;;23.58;9.23;;;;;;;24.67;55.16;100720.28;5036272;28;20392;-77
2021/07/01 05:35:38;;;;;;;20.00;8.50;;;;;;;24.63;55.14;100719.81;5032745;28;20476;-78
2021/07/01 05:38:04;;;;;;;20.05;9.05;;;;;;;24.61;55.52;100721.03;5036641;28;20029;-80
2021/07/01 05:40:30;;;;;;;17.42;8.95;;;;;;;24.64;55.70;100731.38;5043506;28;20156;-80
2021/07/01 05:42:55;;;;;;;16.73;9.10;;;;;;;24.69;55.91;100731.66;5032302;28;20032;-79
2021/07/01 05:45:20;;;;;;;13.88;9.23;;;;;;;24.72;56.33;100724.06;5043596;28;20028;-78
2021/07/01 05:47:46;;;;;;;12.95;8.82;;;;;;;24.79;55.73;100729.50;5052017;28;20036;-80
2021/07/01 05:50:12;;;;;;;11.80;9.35;;;;;;;24.82;56.19;100721.06;5052520;28;20029;-77
2021/07/01 05:52:39;;;;;;;8.98;7.95;;;;;;;24.83;56.04;100725.41;5052126;28;20075;-77
2021/07/01 05:55:05;;;;;;;11.20;8.63;;;;;;;24.85;56.06;100723.38;5052023;28;20348;-77
2021/07/01 05:57:31;;;;;;;13.85;8.90;;;;;;;24.91;55.58;100719.91;5052115;28;20479;-77
2021/07/01 05:59:57;;;;;;;10.73;7.70;;;;;;;24.96;55.34;100727.41;5036712;28;20087;-77
2021/07/01 06:02:23;;;;;;;11.23;8.27;;;;;;;24.96;55.26;100724.72;5032348;28;20072;-77
2021/07/01 06:04:49;;;;;;;9.00;7.82;;;;;;;25.01;54.98;100727.66;5033371;28;20555;-78
2021/07/01 06:07:21;;;;;;;13.27;8.73;;;;;;;25.09;55.14;100732.06;5037126;28;20571;-82
2021/07/01 06:10:01;;;;;;;15.82;9.48;;;;;;;25.12;55.26;100734.41;5037857;28;20075;-82
2021/07/01 06:12:30;;;;;;;11.18;8.75;;;;;;;25.18;55.29;100733.63;5034396;28;20270;-90
2021/07/01 06:14:58;;;;;;;13.43;9.10;;;;;;;25.24;55.11;100737.44;5032432;28;20108;-77
2021/07/01 06:17:35;;;;;;;11.18;8.73;;;;;;;25.28;55.11;100734.16;5040813;28;20340;-82
2021/07/01 06:20:05;;;;;;;11.63;9.50;;;;;;;25.31;54.59;100739.13;5032616;28;20021;-82
2021/07/01 06:22:32;;;;;;;12.68;9.48;;;;;;;25.28;54.66;100738.72;5030458;28;20029;-82
2021/07/01 06:24:58;;;;;;;13.52;9.27;;;;;;;25.29;54.48;100735.81;5031249;28;20108;-82
2021/07/01 06:27:38;;;;;;;13.13;9.93;;;;;;;25.32;54.15;100735.44;5031699;28;20543;-82
2021/07/01 06:30:18;;;;;;;12.85;9.73;;;;;;;25.35;54.32;100738.75;5031786;28;20060;-82
2021/07/01 06:32:46;;;;;;;13.40;10.27;;;;;;;25.25;54.20;100739.91;5031279;28;20030;-82
2021/07/01 06:35:19;;;;;;;12.85;10.68;;;;;;;25.37;54.34;100736.69;5031714;28;20407;-82
2021/07/01 06:37:45;;;;;;;16.92;11.48;;;;;;;25.36;54.08;100735.06;5031699;28;20029;-82
2021/07/01 06:40:12;;;;;;;10.85;9.40;;;;;;;25.35;54.00;100733.38;5031440;28;20475;-82
2021/07/01 06:42:48;;;;;;;10.93;9.70;;;;;;;25.37;54.03;100737.53;5031642;28;20030;-82
2021/07/01 06:45:16;;;;;;;16.20;10.93;;;;;;;25.37;54.09;100732.16;5031494;28;20105;-81
2021/07/01 06:47:52;;;;;;;14.77;10.52;;;;;;;25.41;53.82;100732.59;5031436;28;20375;-82
2021/07/01 06:50:21;;;;;;;11.35;9.27;;;;;;;25.44;53.64;100740.28;5031403;28;20064;-82
2021/07/01 06:52:46;;;;;;;11.88;10.20;;;;;;;25.46;53.80;100738.25;5031393;28;20029;-81
2021/07/01 06:55:16;;;;;;;12.20;9.77;;;;;;;25.36;54.21;100735.88;5030351;28;20037;-81
2021/07/01 06:57:43;;;;;;;14.95;10.18;;;;;;;25.42;54.02;100745.84;5031649;28;20025;-81
2021/07/01 07:00:11;;;;;;;11.95;10.23;;;;;;;25.38;53.82;100751.81;5031188;28;20029;-81
2021/07/01 07:02:38;;;;;;;16.10;10.63;;;;;;;25.37;53.70;100748.28;5029975;28;20159;-81
2021/07/01 07:05:05;;;;;;;12.60;10.00;;;;;;;25.48;53.80;100749.63;5031204;28;20108;-81
2021/07/01 07:07:32;;;;;;;16.35;10.20;;;;;;;25.47;54.15;100747.94;5030963;28;20033;-81
2021/07/01 07:10:02;;;;;;;12.98;10.48;;;;;;;25.61;53.92;100744.38;5031312;28;20112;-82
2021/07/01 07:12:27;;;;;;;13.32;10.18;;;;;;;25.81;53.37;100749.03;5031155;28;20387;-83
2021/07/01 07:14:52;;;;;;;13.00;10.23;;;;;;;25.91;53.11;100752.25;5031250;28;20033;-82
2021/07/01 07:17:19;;;;;;;12.73;9.00;;;;;;;25.86;53.50;100751.97;5031408;28;20286;-82
2021/07/01 07:19:47;;;;;;;15.13;11.68;;;;;;;25.89;52.85;100751.59;5031399;28;20032;-82
2021/07/01 07:22:16;;;;;;;14.43;11.80;;;;;;;25.99;52.42;100746.72;5033908;28;20057;-83
2021/07/01 07:24:42;;;;;;;19.80;11.77;;;;;;;26.04;52.67;100741.56;5038463;28;20068;-80
2021/07/01 07:27:07;;;;;;;14.20;10.25;;;;;;;26.10;52.36;100748.84;5030760;28;20049;-81
2021/07/01 07:29:36;;;;;;;15.90;10.07;;;;;;;26.21;52.26;100750.16;5048018;28;20405;-82
2021/07/01 07:32:04;;;;;;;16.92;11.00;;;;;;;26.15;52.37;100755.53;5050562;28;20025;-82
2021/07/01 07:34:30;;;;;;;18.00;9.95;;;;;;;26.14;52.42;100748.47;5050861;28;20059;-82
2021/07/01 07:36:56;;;;;;;14.75;10.10;;;;;;;26.17;52.58;100742.69;5051185;28;20039;-82
2021/07/01 07:39:24;;;;;;;14.55;9.80;;;;;;;26.22;52.27;100746.41;5050821;28;20483;-84
2021/07/01 07:41:50;;;;;;;18.77;10.27;;;;;;;26.20;52.73;100747.66;5036213;28;20375;-82
2021/07/01 07:44:17;;;;;;;16.67;11.10;;;;;;;26.01;52.91;100749.22;5049057;28;20025;-82
2021/07/01 07:46:42;;;;;;;21.90;11.55;;;;;;;26.00;53.00;100752.94;5034170;28;20041;-82
2021/07/01 07:49:09;;;;;;;19.83;12.05;;;;;;;25.98;53.30;100749.59;5034710;28;20387;-82
2021/07/01 07:51:35;;;;;;;19.67;11.07;;;;;;;25.93;53.58;100758.28;5047219;28;20036;-83
2021/07/01 07:54:06;;;;;;;15.40;10.80;;;;;;;25.92;53.71;100754.72;5041276;28;20030;-82
2021/07/01 07:56:38;;;;;;;13.55;10.88;;;;;;;25.87;53.85;100753.63;5034433;28;20048;-82
2021/07/01 07:59:06;;;;;;;15.98;12.25;;;;;;;25.87;54.22;100759.00;5034311;28;20032;-82
2021/07/01 08:01:34;;;;;;;16.02;11.05;;;;;;;25.83;54.24;100755.91;5042482;28;20037;-82
2021/07/01 08:04:05;;;;;;;18.73;12.15;;;;;;;25.81;54.38;100755.28;5034356;28;20108;-82
2021/07/01 08:06:30;;;;;;;18.10;12.25;;;;;;;25.77;54.55;100758.53;5034241;28;20494;-82
2021/07/01 08:08:57;;;;;;;14.95;10.93;;;;;;;25.76;54.90;100759.56;5034172;28;20045;-83
2021/07/01 08:11:24;;;;;;;17.05;12.40;;;;;;;25.57;55.27;100761.88;5034280;28;20206;-83
2021/07/01 08:13:55;;;;;;;18.00;14.32;;;;;;;25.47;54.79;100754.16;5034186;28;20041;-82
2021/07/01 08:16:22;;;;;;;27.25;16.38;;;;;;;25.43;55.04;100762.81;5044675;28;20474;-82
2021/07/01 08:18:49;;;;;;;23.02;16.25;;;;;;;25.37;55.00;100764.41;5054229;28;20116;-82
2021/07/01 08:21:15;;;;;;;23.52;16.23;;;;;;;25.42;54.90;100766.53;5044811;28;20051;-82
2021/07/01 08:23:43;;;;;;;21.75;16.88;;;;;;;25.23;55.33;100766.13;5053811;28;20471;-82
2021/07/01 08:26:11;;;;;;;19.80;16.25;;;;;;;25.32;55.13;100758.78;5053656;28;20033;-82
2021/07/01 08:28:36;;;;;;;22.63;17.13;;;;;;;25.12;55.83;100767.47;5069198;28;20035;-82
2021/07/01 08:31:08;;;;;;;26.35;16.48;;;;;;;25.08;56.27;100766.19;5035043;28;20029;-82
2021/07/01 08:33:40;;;;;;;21.55;15.68;;;;;;;25.07;56.46;100761.81;5033699;28;20029;-82
2021/07/01 08:36:11;;;;;;;28.98;17.17;;;;;;;25.20;56.69;100769.19;5044677;28;20384;-83
2021/07/01 08:38:37;;;;;;;20.85;16.50;;;;;;;25.05;56.41;100763.03;5053637;28;20029;-83
2021/07/01 08:41:36;;;;;;;21.27;16.67;;;;;;;25.03;56.58;100762.41;5053608;28;20025;-83
2021/07/01 08:44:08;;;;;;;26.00;16.55;;;;;;;25.07;56.58;100766.38;5052042;28;20045;-84
2021/07/01 08:46:50;;;;;;;22.15;16.17;;;;;;;24.99;56.48;100761.94;5053327;28;20826;-84
2021/07/01 08:49:44;;;;;;;23.25;17.45;;;;;;;24.97;56.50;100757.78;5053460;28;20082;-83
2021/07/01 08:52:14;;;;;;;23.63;17.30;;;;;;;24.94;56.43;100764.34;5032988;28;20128;-83
2021/07/01 08:54:43;;;;;;;22.00;17.25;;;;;;;24.90;56.64;100757.69;5033176;28;20029;-83
2021/07/01 08:57:15;;;;;;;22.92;18.23;;;;;;;25.04;56.54;100761.34;5032934;28;20029;-83
2021/07/01 08:59:54;;;;;;;26.08;19.10;;;;;;;25.19;56.23;100759.44;5033278;28;20021;-83
2021/07/01 09:02:23;;;;;;;23.35;17.23;;;;;;;25.17;56.11;100758.81;5033156;28;20121;-83
2021/07/01 09:04:58;;;;;;;23.95;17.80;;;;;;;25.26;55.77;100762.25;5036119;28;20060;-82
2021/07/01 09:07:25;;;;;;;21.92;16.73;;;;;;;25.28;55.83;100754.81;5043375;28;20091;-80
2021/07/01 09:10:04;;;;;;;33.10;18.08;;;;;;;25.26;56.49;100752.31;5037404;28;20022;-82
2021/07/01 09:12:30;;;;;;;27.42;18.25;;;;;;;25.21;56.34;100760.09;5038054;28;20020;-82
2021/07/01 09:15:01;;;;;;;27.08;17.35;;;;;;;25.23;56.01;100757.25;5053153;28;20017;-82
2021/07/01 09:17:30;;;;;;;24.65;17.65;;;;;;;25.26;56.03;100757.69;5040062;28;20021;-82
2021/07/01 09:19:57;;;;;;;25.02;18.13;;;;;;;25.25;55.91;100756.03;5033084;28;20029;-82
2021/07/01 09:22:23;;;;;;;25.95;17.02;;;;;;;25.25;55.99;100758.72;5032827;28;20529;-82
2021/07/01 09:24:50;;;;;;;28.75;17.83;;;;;;;25.27;55.96;100753.16;5032636;28;20022;-82
2021/07/01 09:27:17;;;;;;;29.10;17.52;;;;;;;25.24;55.91;100754.38;5032579;28;20036;-82
2021/07/01 09:29:45;;;;;;;38.90;17.40;;;;;;;25.22;56.11;100751.06;5032759;28;20263;-82
2021/07/01 09:32:12;;;;;;;37.58;19.73;;;;;;;25.24;56.18;100753.56;5032391;28;20041;-82
2021/07/01 09:34:44;;;;;;;43.25;18.80;;;;;;;25.23;56.74;100752.69;5038279;28;20435;-82
2021/07/01 09:37:09;;;;;;;33.45;18.88;;;;;;;25.29;56.00;100757.31;5052389;28;20116;-82
2021/07/01 09:39:36;;;;;;;44.90;18.60;;;;;;;25.30;56.07;100753.59;5046245;28;20113;-82
2021/07/01 09:42:03;;;;;;;36.85;17.52;;;;;;;25.39;55.73;100756.16;5040110;28;20025;-81
2021/07/01 09:44:31;;;;;;;30.33;16.73;;;;;;;25.48;55.71;100747.75;5032465;28;20043;-81
2021/07/01 09:46:58;;;;;;;35.38;17.63;;;;;;;25.52;55.69;100753.59;5033708;28;20091;-81
2021/07/01 09:49:33;;;;;;;35.38;17.92;;;;;;;25.56;55.27;100745.97;5036116;28;20025;-81
2021/07/01 09:52:08;;;;;;;29.30;17.17;;;;;;;25.53;55.71;100750.72;5043832;28;20052;-81
2021/07/01 09:54:35;;;;;;;28.30;16.58;;;;;;;25.56;55.63;100746.78;5050964;28;20104;-81
2021/07/01 09:57:11;;;;;;;33.65;17.02;;;;;;;25.64;55.65;100748.50;5051728;28;20475;-81
2021/07/01 09:59:47;;;;;;;30.63;16.17;;;;;;;25.76;55.42;100751.50;5039520;28;20483;-81
2021/07/01 10:02:14;;;;;;;26.63;15.48;;;;;;;25.90;54.83;100746.03;5032072;28;20379;-81
2021/07/01 10:04:45;;;;;;;26.08;13.75;;;;;;;25.96;54.68;100757.03;5032089;28;20036;-81
2021/07/01 10:07:14;;;;;;;21.45;13.98;;;;;;;26.05;54.35;100751.31;5031404;28;20033;-81
2021/07/01 10:09:40;;;;;;;27.52;14.43;;;;;;;26.00;54.28;100761.81;5030420;28;20426;-81
2021/07/01 10:12:14;;;;;;;27.52;14.77;;;;;;;26.04;54.69;100754.19;5032054;28;20048;-81
2021/07/01 10:14:40;;;;;;;25.60;12.15;;;;;;;26.20;53.61;100755.72;5047410;28;20036;-81
2021/07/01 10:17:10;;;;;;;19.05;11.73;;;;;;;26.27;53.48;100751.22;5031766;28;20013;-81
2021/07/01 10:19:36;;;;;;;21.60;13.02;;;;;;;26.30;53.62;100756.19;5031916;28;20022;-81
2021/07/01 10:22:07;;;;;;;21.08;11.80;;;;;;;26.39;53.41;100746.94;5031691;28;20018;-81
2021/07/01 10:24:39;;;;;;;20.90;12.60;;;;;;;26.50;52.98;100743.69;5031902;28;20029;-81
2021/07/01 10:27:05;;;;;;;19.52;11.32;;;;;;;26.44;53.27;100749.00;5031711;28;20314;-81
2021/07/01 10:29:39;;;;;;;19.75;12.05;;;;;;;26.47;53.30;100749.44;5039282;28;20183;-81
2021/07/01 10:32:07;;;;;;;14.77;11.52;;;;;;;26.42;53.35;100745.69;5031518;28;20475;-82
2021/07/01 10:34:47;;;;;;;24.65;13.57;;;;;;;26.44;53.45;100747.19;5031403;28;20021;-81
2021/07/01 10:37:19;;;;;;;14.10;11.13;;;;;;;26.45;53.16;100743.44;5044521;28;20143;-81
2021/07/01 10:39:47;;;;;;;17.92;11.98;;;;;;;26.59;53.01;100743.53;5052489;28;20028;-81
2021/07/01 10:42:14;;;;;;;18.33;10.55;;;;;;;26.54;53.32;100751.34;5051518;28;20222;-81
2021/07/01 10:44:39;;;;;;;14.18;10.55;;;;;;;26.70;52.51;100748.34;5051323;28;20486;-81
2021/07/01 10:47:24;;;;;;;17.90;10.55;;;;;;;26.74;52.63;100754.13;5051257;28;20036;-81
2021/07/01 10:49:50;;;;;;;12.50;10.60;;;;;;;26.77;52.54;100749.19;5051437;28;20025;-81
2021/07/01 10:52:15;;;;;;;12.77;9.65;;;;;;;26.89;51.93;100741.34;5048994;28;20112;-82
2021/07/01 10:54:59;;;;;;;17.50;10.95;;;;;;;27.08;51.75;100745.13;5051348;28;20033;-81
2021/07/01 10:57:29;;;;;;;19.38;10.75;;;;;;;27.14;51.52;100747.00;5051143;28;20047;-81
2021/07/01 10:59:57;;;;;;;14.15;10.30;;;;;;;27.20;51.19;100748.84;5049313;28;20079;-82
2021/07/01 11:02:32;;;;;;;16.38;10.80;;;;;;;27.34;50.90;100743.50;5051245;28;20103;-82
2021/07/01 11:05:00;;;;;;;15.43;10.30;;;;;;;27.36;51.13;100741.44;5048190;28;20021;-81
2021/07/01 11:07:28;;;;;;;16.63;11.13;;;;;;;27.35;50.68;100740.63;5030985;28;20033;-81
2021/07/01 11:09:56;;;;;;;13.00;9.55;;;;;;;27.36;51.06;100736.06;5031105;28;20060;-81
2021/07/01 11:12:26;;;;;;;11.68;9.30;;;;;;;27.34;51.16;100738.13;5031039;28;20025;-82
2021/07/01 11:14:54;;;;;;;13.88;9.82;;;;;;;27.20;51.49;100738.06;5031124;28;20026;-82
2021/07/01 11:17:40;;;;;;;13.45;10.55;;;;;;;27.29;51.22;100728.78;5031227;28;20052;-81